createdAt,value
2022-11-13T07:58:06.147Z,59.367001
2022-11-13T07:59:15.685Z,60.473999
2022-11-13T08:00:25.335Z,60.817001
2022-11-13T08:01:34.061Z,60.979
2022-11-13T08:02:42.641Z,61.178001
2022-11-13T08:03:52.493Z,61.32
2022-11-13T08:05:02.169Z,61.379002
2022-11-13T08:06:10.798Z,61.423
2022-11-13T08:07:19.448Z,61.467999
2022-11-13T08:08:28.337Z,61.740002
2022-11-13T08:09:37.939Z,61.757999
2022-11-13T08:10:47.508Z,61.827
2022-11-13T08:11:55.346Z,61.870998
2022-11-13T08:13:04.993Z,61.883999
2022-11-13T08:14:14.813Z,61.946999
2022-11-13T08:15:24.519Z,61.966999
2022-11-13T08:16:34.305Z,61.998001
2022-11-13T08:17:44.089Z,62.019001
2022-11-13T08:18:53.696Z,62.042999
2022-11-13T08:20:02.406Z,62.055
2022-11-13T08:21:14.817Z,62.085999
2022-11-13T08:22:21.810Z,62.091
2022-11-13T08:23:31.569Z,62.098999
2022-11-13T08:24:40.133Z,62.092999
2022-11-13T08:25:48.826Z,62.082001
2022-11-13T08:26:57.561Z,62.089001
2022-11-13T08:28:11.902Z,62.068001
2022-11-13T08:29:18.514Z,62.044998
2022-11-13T08:30:27.138Z,62.030998
2022-11-13T08:31:36.641Z,62.039001
2022-11-13T08:32:46.519Z,61.976002
2022-11-13T08:33:56.188Z,61.978001
2022-11-13T08:35:05.958Z,61.964001
2022-11-13T08:36:15.601Z,61.952999
2022-11-13T08:37:24.228Z,61.938999
2022-11-13T08:38:33.886Z,61.938
2022-11-13T08:39:43.676Z,61.938999
2022-11-13T08:40:53.505Z,61.924999
2022-11-13T08:42:03.102Z,61.890999
2022-11-13T08:43:11.865Z,61.884998
2022-11-13T08:44:21.906Z,61.876999
2022-11-13T08:45:31.676Z,61.891998
2022-11-13T08:46:41.332Z,61.883999
2022-11-13T08:47:50.904Z,61.863998
2022-11-13T08:48:59.932Z,61.860001
2022-11-13T08:50:09.575Z,61.854
2022-11-13T08:51:18.391Z,61.863998
2022-11-13T08:52:28.096Z,61.830002
2022-11-13T08:53:37.686Z,61.790001
2022-11-13T08:54:47.465Z,61.773998
2022-11-13T08:55:56.193Z,61.759998
2022-11-13T08:57:06.336Z,61.73
2022-11-13T08:58:14.815Z,61.709999
2022-11-13T08:59:24.582Z,61.709
2022-11-13T09:00:34.109Z,61.709
2022-11-13T09:01:43.816Z,61.679001
2022-11-13T09:02:53.763Z,61.641998
2022-11-13T09:04:03.281Z,61.616001
2022-11-13T09:05:10.807Z,61.612
2022-11-13T09:06:20.394Z,61.598
2022-11-13T09:07:29.026Z,61.597
2022-11-13T09:08:37.512Z,61.605
2022-11-13T09:09:46.070Z,61.605
2022-11-13T09:10:54.626Z,61.577999
2022-11-13T09:12:04.222Z,61.577999
2022-11-13T09:13:11.789Z,61.548
2022-11-13T09:14:19.334Z,61.525002
2022-11-13T09:15:29.029Z,61.493
2022-11-13T09:16:38.518Z,61.473999
2022-11-13T09:17:47.088Z,61.445
2022-11-13T09:18:55.687Z,61.431999
2022-11-13T09:20:06.149Z,61.431
2022-11-13T09:21:15.812Z,61.407001
2022-11-13T09:22:23.390Z,61.405998
2022-11-13T09:23:30.944Z,61.386002
2022-11-13T09:24:40.520Z,61.369999
2022-11-13T09:25:49.121Z,61.344002
2022-11-13T09:26:57.752Z,61.342999
2022-11-13T09:28:07.344Z,61.314999
2022-11-13T09:29:15.955Z,61.314999
2022-11-13T09:30:25.504Z,61.293999
2022-11-13T09:31:33.099Z,61.271
2022-11-13T09:32:40.643Z,61.233002
2022-11-13T09:33:50.233Z,61.262001
2022-11-13T09:34:58.820Z,61.241001
2022-11-13T09:36:07.511Z,61.227001
2022-11-13T09:37:15.115Z,61.208
2022-11-13T09:38:24.680Z,61.200001
2022-11-13T09:39:34.231Z,61.202
2022-11-13T09:40:42.793Z,61.195999
2022-11-13T09:41:50.370Z,61.165001
2022-11-13T09:42:58.941Z,61.154999
2022-11-13T09:44:07.613Z,61.16
2022-11-13T09:45:16.213Z,61.16
2022-11-13T09:46:24.787Z,61.159
2022-11-13T09:47:34.460Z,61.182999
2022-11-13T09:48:43.925Z,61.199001
2022-11-13T09:49:51.476Z,61.203999
2022-11-13T09:51:00.029Z,61.203999
2022-11-13T09:52:09.602Z,61.209
2022-11-13T09:53:18.178Z,61.202999
2022-11-13T09:54:26.748Z,61.220001
2022-11-13T09:55:35.426Z,61.220001
2022-11-13T09:56:43.991Z,61.192001
2022-11-13T09:57:53.590Z,61.210999
2022-11-13T09:59:02.250Z,61.236
2022-11-13T10:00:10.793Z,61.241001
2022-11-13T10:01:20.466Z,61.241001
2022-11-13T10:02:28.993Z,61.234001
2022-11-13T10:03:59.680Z,61.223999
2022-11-13T10:04:49.150Z,61.167999
2022-11-13T10:05:57.698Z,61.200001
2022-11-13T10:07:07.316Z,61.205002
2022-11-13T10:08:14.906Z,61.167
2022-11-13T10:09:22.457Z,61.157001
2022-11-13T10:10:32.017Z,61.144001
2022-11-13T10:11:40.580Z,61.143002
2022-11-13T10:12:49.121Z,61.125999
2022-11-13T10:13:57.702Z,61.105
2022-11-13T10:15:06.264Z,61.070999
2022-11-13T10:16:15.843Z,61.043999
2022-11-13T10:17:24.393Z,61.019001
2022-11-13T10:18:32.957Z,61.014999
2022-11-13T10:19:42.619Z,61.000999
2022-11-13T10:20:52.066Z,60.987
2022-11-13T10:22:26.285Z,60.959
2022-11-13T10:23:12.213Z,60.951
2022-11-13T10:24:20.758Z,60.945
2022-11-13T10:25:30.314Z,60.917999
2022-11-13T10:26:37.912Z,60.909
2022-11-13T10:27:45.516Z,60.882
2022-11-13T10:28:55.225Z,60.839001
2022-11-13T10:30:03.607Z,60.803001
2022-11-13T10:31:12.216Z,60.784
2022-11-13T10:32:21.798Z,60.735001
2022-11-13T10:33:30.758Z,60.709999
2022-11-13T10:34:38.969Z,60.683998
2022-11-13T10:35:48.694Z,60.682999
2022-11-13T10:36:59.174Z,60.630001
2022-11-13T10:38:09.065Z,60.611
2022-11-13T10:39:17.291Z,60.580002
2022-11-13T10:40:27.071Z,60.542
2022-11-13T10:41:37.664Z,60.514999
2022-11-13T10:42:46.221Z,60.460999
2022-11-13T10:43:53.754Z,60.453999
2022-11-13T10:45:05.869Z,60.337002
2022-11-13T10:46:12.882Z,60.194
2022-11-13T10:47:42.742Z,60.095001
